Aérodrome :
LOGIN :

S'inscrire | Disclaimer

   EN    FR    IT 

 










Légende :    VFR   VFR Marginal   IFR   IFR Intensif   IFR Très Intensif
Visi : 
Plafond : 
>= 8 km
>= 3000ft
5 à 8 km
1000 à 3000 ft
1500m à 5 km
500 à 1000 ft
800 à 1500m
200 à 500 ft
< 800m
< 200 ft
Symboles :   Orages  Brouillard  Fortes neiges  Fortes précipitations  Vent > 20 kt
SIGMETs :   Divers  Orages  Givrage  Turbulence  Onde Orograph.  Cendres Volcan.






- Altitude de l'aérodrome : 183 ft


LIBA - Amendola Foggia

DERNIER METAR :
  • 070955Z 11003KT CAVOK 17/M04 Q1027 RMK SKC VIS MIN 9999 WIND THR11 VRB03KT WIND THR29 /////KT BLU

METARs EXPIRÉS :
  • 070855Z VRB03KT CAVOK 16/01 Q1026 RMK SKC VIS MIN 9999 WIND THR11 VRB03KT WIND THR29 /////KT BLU
  • 070755Z 28005KT CAVOK 12/06 Q1026 RMK SKC VIS MIN 9999 WIND THR11 29005KT WIND THR29 /////KT BLU

TAF TAF LIBA
Valide du 07 à 09h jusqu'au 07 à 18h UTC


070800Z 0709/0718 28008KT CAVOK
BECMG 0710/0712 09012KT 9999 FEW030



MET'MAP, la Météo Aéronautique d'un coup d'oeil ! - Copyright ORBIFLY Décembre 2007 - Disclaimer

ORBIFLY MET'MAP TEAM :

Programmation & Développement : Alexandra Zaïnal
Sur une idée originale de : Baudouin d'Aumeries
Assistance à la programmation : Marc-Olivier Méhu
Soutien technique & logistique : Manuel Goepfert

Contact : metmap@orbifly.com




SOURCES & CREDITS :

   NOAA